Airfield :
LOGIN :

Register | Disclaimer

   EN    FR    IT 

 










Legend :    VFR   Marginal VFR   IFR   Intensive IFR   Very Intensive IFR
Visi :
Ceiling :
>= 8 km
>= 3000ft
5 to 8 km
1000 to 3000 ft
1500m to 5 km
500 to 1000 ft
800 to 1500m
200 to 500 ft
< 800m
< 200 ft
Symbols :   Thunderstorms  Fog  Heavy snow  Heavy precipitations  Wind > 20 kt
SIGMETs :     Misc.  Thunderstorms  Icing  Turbulence  Mountain Waves  Volcanic Ashes







- Airport Elevation : 1906 ft
- IATA code : INN


LOWI - Innsbruck

CURRENT METAR :
  • 160520Z 26003KT 210V290 CAVOK 07/04 Q1021 NOSIG

EXPIRED METARs :
  • 160450Z 27008KT CAVOK 07/04 Q1021 NOSIG
  • 160420Z 27006KT CAVOK 07/04 Q1020 NOSIG
  • 160350Z 28009KT CAVOK 07/04 Q1020 NOSIG
  • 160320Z AUTO 27009KT 9999 NSC 07/04 Q1020
  • 160250Z AUTO 26009KT 9999 NSC 07/04 Q1020

TAF TAF LOWI
Valid from the 16 at 00:00 until the 17 at 00:00 UTC


152315Z 1600/1624 27006KT 9999 FEW070 TX21/1614Z TN06/1606Z
BECMG 1609/1611 10007KT
TEMPO 1610/1616 11010G20KT
BECMG 1616/1618 27004KT
No reported NOTAMs for that airfield.



MET'MAP, your aeronautical weather chart ! - Copyright ORBIFLY December 2007 - Disclaimer

ORBIFLY MET'MAP TEAM :

Programming & Development : Alexandra Zaïnal
Concept & Development : Baudouin d'Aumeries
Co-Development & Prog : Marc-Olivier Méhu
Technical & hardware support : Manuel Goepfert

Contact : metmap@orbifly.com




SOURCES & CREDITS :

   NOAA